createdAt,value
2019-03-01T00:01:13.239Z,96540.13
2019-03-01T00:03:45.185Z,96542.52
2019-03-01T00:06:35.077Z,96543.78
2019-03-01T00:09:58.973Z,96543.69
2019-03-01T00:13:08.741Z,96541.50
2019-03-01T00:15:59.160Z,96530.56
2019-03-01T00:19:45.953Z,96529.78
2019-03-01T00:23:01.787Z,96530.45
2019-03-01T00:26:12.167Z,96527.26
2019-03-01T00:29:25.664Z,96540.58
2019-03-01T00:32:21.808Z,96532.02
2019-03-01T00:36:01.341Z,96535.22
2019-03-01T00:39:09.873Z,96532.01
2019-03-01T00:42:21.388Z,96531.87
2019-03-01T00:44:53.181Z,96533.11
2019-03-01T00:47:24.923Z,96537.52
2019-03-01T00:49:56.633Z,96542.72
2019-03-01T00:52:28.368Z,96534.02
2019-03-01T00:55:00.328Z,96538.81
2019-03-01T00:57:32.080Z,96541.35
2019-03-01T01:00:04.024Z,96536.97
2019-03-01T01:02:35.765Z,96536.58
2019-03-01T01:05:08.081Z,96539.62
2019-03-01T01:07:39.913Z,96530.45
2019-03-01T01:10:11.989Z,96530.45
2019-03-01T01:12:43.716Z,96532.81
2019-03-01T01:15:15.498Z,96521.51
2019-03-01T01:17:47.396Z,96518.75
2019-03-01T01:20:19.257Z,96514.73
2019-03-01T01:22:51.059Z,96508.61
2019-03-01T01:25:22.773Z,96507.61
2019-03-01T01:27:54.498Z,96502.91
2019-03-01T01:30:26.218Z,96490.89
2019-03-01T01:32:58.008Z,96481.23
2019-03-01T01:35:32.323Z,96481.14
2019-03-01T01:38:04.273Z,96486.22
2019-03-01T01:40:36.151Z,96472.58
2019-03-01T01:43:07.959Z,96471.49
2019-03-01T01:45:39.756Z,96462.33
2019-03-01T01:48:11.489Z,96462.21
2019-03-01T01:50:43.235Z,96462.07
2019-03-01T01:53:14.971Z,96460.55
2019-03-01T01:55:46.938Z,96443.78
2019-03-01T01:58:18.778Z,96448.75
2019-03-01T02:00:50.602Z,96435.78
2019-03-01T02:03:22.578Z,96440.31
2019-03-01T02:05:54.445Z,96434.63
2019-03-01T02:08:26.265Z,96434.53
2019-03-01T02:10:58.062Z,96434.28
2019-03-01T02:13:31.026Z,96430.55
2019-03-01T02:16:02.820Z,96430.14
2019-03-01T02:18:34.542Z,96422.38
2019-03-01T02:21:06.401Z,96419.22
2019-03-01T02:23:40.076Z,96416.26
2019-03-01T02:26:11.807Z,96408.17
2019-03-01T02:28:43.693Z,96415.80
2019-03-01T02:31:17.003Z,96411.79
2019-03-01T02:33:48.722Z,96412.04
2019-03-01T02:36:20.968Z,96413.41
2019-03-01T02:38:52.703Z,96406.44
2019-03-01T02:41:24.437Z,96404.59
2019-03-01T02:43:56.173Z,96396.18
2019-03-01T02:46:27.882Z,96395.39
2019-03-01T02:48:59.611Z,96390.29
2019-03-01T02:51:31.521Z,96383.98
2019-03-01T02:54:03.249Z,96380.62
2019-03-01T02:56:34.984Z,96375.98
2019-03-01T02:59:06.717Z,96373.34
2019-03-01T03:01:38.516Z,96369.70
2019-03-01T03:04:10.250Z,96365.14
2019-03-01T03:06:50.326Z,96367.98
2019-03-01T03:09:22.053Z,96358.26
2019-03-01T03:11:54.021Z,96358.23
2019-03-01T03:14:25.788Z,96356.70
2019-03-01T03:16:57.743Z,96354.91
2019-03-01T03:19:29.611Z,96349.92
2019-03-01T03:22:02.291Z,96349.30
2019-03-01T03:24:34.027Z,96352.63
2019-03-01T03:27:05.875Z,96345.05
2019-03-01T03:29:37.591Z,96321.36
2019-03-01T03:32:09.311Z,96342.89
2019-03-01T03:34:41.093Z,96342.09
2019-03-01T03:37:12.830Z,96340.49
2019-03-01T03:39:44.541Z,96341.36
2019-03-01T03:42:16.483Z,96336.56
2019-03-01T03:44:48.215Z,96333.66
2019-03-01T03:47:20.011Z,96332.62
2019-03-01T03:49:52.154Z,96339.16
2019-03-01T03:52:24.410Z,96339.34
2019-03-01T03:54:56.368Z,96335.07
2019-03-01T03:57:28.168Z,96329.31
2019-03-01T03:59:59.892Z,96332.88
2019-03-01T04:02:31.605Z,96334.73
2019-03-01T04:05:03.828Z,96326.11
2019-03-01T04:07:35.689Z,96326.84
2019-03-01T04:10:08.000Z,96319.91
2019-03-01T04:12:40.375Z,96312.80
2019-03-01T04:15:13.760Z,96313.68
2019-03-01T04:17:45.558Z,96306.93
2019-03-01T04:20:18.337Z,96304.95
2019-03-01T04:22:50.149Z,96302.22
2019-03-01T04:25:21.855Z,96302.25
2019-03-01T04:27:53.661Z,96290.64
2019-03-01T04:30:25.406Z,96301.70
2019-03-01T04:32:57.129Z,96291.52
2019-03-01T04:35:28.919Z,96301.96
2019-03-01T04:38:00.888Z,96294.28
2019-03-01T04:40:32.692Z,96291.25
2019-03-01T04:43:04.410Z,96285.38
2019-03-01T04:45:36.549Z,96284.06
2019-03-01T04:48:08.261Z,96279.38
2019-03-01T04:50:40.006Z,96271.33
2019-03-01T04:53:11.727Z,96274.52
2019-03-01T04:55:43.799Z,96278.45
2019-03-01T04:58:15.607Z,96275.45
2019-03-01T05:00:47.586Z,96273.77
2019-03-01T05:03:19.301Z,96272.55
2019-03-01T05:05:51.359Z,96273.80
2019-03-01T05:08:23.082Z,96280.70
2019-03-01T05:10:55.052Z,96272.61
2019-03-01T05:13:26.830Z,96273.52
2019-03-01T05:15:58.567Z,96275.34
2019-03-01T05:18:30.291Z,96268.08
2019-03-01T05:21:02.101Z,96265.30
2019-03-01T05:23:34.059Z,96256.97
2019-03-01T05:26:05.777Z,96257.99
2019-03-01T05:28:37.768Z,96257.41
2019-03-01T05:31:09.579Z,96260.57
2019-03-01T05:33:41.294Z,96254.23
2019-03-01T05:36:13.244Z,96255.74
2019-03-01T05:38:45.024Z,96250.61
2019-03-01T05:41:17.022Z,96250.74
2019-03-01T05:43:49.017Z,96252.86
2019-03-01T05:46:20.992Z,96255.82
2019-03-01T05:48:52.714Z,96251.05
2019-03-01T05:51:24.461Z,96250.75
2019-03-01T05:53:56.184Z,96254.53
2019-03-01T05:56:28.111Z,96257.98
2019-03-01T05:59:21.499Z,96246.20
2019-03-01T06:02:29.119Z,96248.03
2019-03-01T06:05:08.107Z,96250.59
2019-03-01T06:08:37.105Z,96249.64
2019-03-01T06:12:08.068Z,96242.19
2019-03-01T06:15:34.131Z,96245.47
2019-03-01T06:18:40.726Z,96245.42
2019-03-01T06:21:49.052Z,96241.93
2019-03-01T06:25:02.846Z,96236.25
2019-03-01T06:28:18.811Z,96244.83
2019-03-01T06:31:41.749Z,96241.93
2019-03-01T06:35:06.264Z,96242.30
2019-03-01T06:39:10.789Z,96240.91
2019-03-01T06:42:56.132Z,96241.05
2019-03-01T06:45:59.559Z,96236.64
2019-03-01T06:48:48.885Z,96243.44
2019-03-01T06:51:28.781Z,96246.05
2019-03-01T06:53:57.289Z,96259.45
2019-03-01T06:56:29.427Z,96254.61
2019-03-01T06:59:04.170Z,96248.41
2019-03-01T07:01:40.945Z,96256.86
2019-03-01T07:04:16.758Z,96259.50
2019-03-01T07:06:48.670Z,96256.77
2019-03-01T07:09:20.424Z,96264.22
2019-03-01T07:11:52.161Z,96255.00
2019-03-01T07:14:23.877Z,96255.06
2019-03-01T07:16:55.873Z,96250.17
2019-03-01T07:19:27.585Z,96249.83
2019-03-01T07:21:59.314Z,96243.63
2019-03-01T07:24:31.099Z,96245.69
2019-03-01T07:27:02.822Z,96254.61
2019-03-01T07:29:34.543Z,96253.38
2019-03-01T07:32:06.267Z,96244.85
2019-03-01T07:34:38.053Z,96247.59
2019-03-01T07:37:09.778Z,96245.23
2019-03-01T07:39:41.490Z,96247.81
2019-03-01T07:42:13.221Z,96248.70
2019-03-01T07:44:45.973Z,96253.92
2019-03-01T07:47:17.699Z,96256.05
2019-03-01T07:49:49.672Z,96256.84
2019-03-01T07:52:21.423Z,96252.79
2019-03-01T07:54:53.740Z,96256.15
2019-03-01T07:57:25.519Z,96258.97
2019-03-01T07:59:57.485Z,96256.31
2019-03-01T08:02:29.202Z,96259.20
2019-03-01T08:05:04.269Z,96258.44
2019-03-01T08:07:34.503Z,96255.23
2019-03-01T08:10:08.420Z,96255.75
2019-03-01T08:12:42.610Z,96257.13
2019-03-01T08:15:15.568Z,96259.37
2019-03-01T08:17:47.531Z,96256.99
2019-03-01T08:20:19.264Z,96261.11
2019-03-01T08:22:51.234Z,96267.20
2019-03-01T08:25:24.596Z,96265.52
2019-03-01T08:27:56.510Z,96266.44
2019-03-01T08:30:28.216Z,96273.83
2019-03-01T08:33:02.624Z,96269.77
2019-03-01T08:35:34.364Z,96263.97
2019-03-01T08:38:06.168Z,96260.05
2019-03-01T08:40:37.956Z,96252.59
2019-03-01T08:43:13.019Z,96259.50
2019-03-01T08:45:43.159Z,96263.99
2019-03-01T08:48:14.957Z,96259.22
2019-03-01T08:50:47.117Z,96253.02
2019-03-01T08:53:19.085Z,96261.95
2019-03-01T08:55:52.168Z,96252.82
2019-03-01T08:58:23.948Z,96250.52
2019-03-01T09:00:59.600Z,96235.14
2019-03-01T09:03:34.995Z,96240.52
2019-03-01T09:06:06.769Z,96235.65
2019-03-01T09:08:38.832Z,96242.58
2019-03-01T09:11:11.611Z,96240.70
2019-03-01T09:13:43.323Z,96241.62
2019-03-01T09:16:15.121Z,96239.71
2019-03-01T09:18:49.909Z,96242.20
2019-03-01T09:21:20.255Z,96240.74
2019-03-01T09:23:55.029Z,96242.13
2019-03-01T09:26:26.991Z,96241.16
2019-03-01T09:28:58.710Z,96242.03
2019-03-01T09:31:30.422Z,96248.96
2019-03-01T09:34:02.205Z,96249.06
2019-03-01T09:36:37.778Z,96248.94
2019-03-01T09:39:10.691Z,96246.56
2019-03-01T09:41:42.477Z,96250.10
2019-03-01T09:44:14.200Z,96249.40
2019-03-01T09:46:46.244Z,96243.56
2019-03-01T09:49:17.967Z,96237.14
2019-03-01T09:51:50.076Z,96242.68
2019-03-01T09:54:21.848Z,96249.62
2019-03-01T09:56:53.626Z,96242.98
2019-03-01T09:59:25.359Z,96250.06
2019-03-01T10:01:57.063Z,96252.50
2019-03-01T10:04:28.787Z,96245.28
2019-03-01T10:07:00.507Z,96249.34
2019-03-01T10:09:32.230Z,96246.34
2019-03-01T10:12:03.940Z,96255.84
2019-03-01T10:14:35.735Z,96257.20
2019-03-01T10:17:07.451Z,96247.83
2019-03-01T10:19:39.166Z,96259.41
2019-03-01T10:22:11.368Z,96255.89
2019-03-01T10:24:43.084Z,96248.84
2019-03-01T10:27:14.798Z,96254.53
2019-03-01T10:29:46.518Z,96255.44
2019-03-01T10:32:18.298Z,96254.37
2019-03-01T10:34:50.024Z,96264.18
2019-03-01T10:37:21.806Z,96260.19
2019-03-01T10:39:55.533Z,96259.89
2019-03-01T10:42:27.258Z,96259.50
2019-03-01T10:44:59.239Z,96264.77
2019-03-01T10:47:30.946Z,96265.36
2019-03-01T10:50:02.669Z,96266.87
2019-03-01T10:52:34.443Z,96261.85
2019-03-01T10:55:08.237Z,96269.30
2019-03-01T10:57:41.058Z,96269.47
2019-03-01T11:00:22.009Z,96261.76
2019-03-01T11:02:54.124Z,96262.91
2019-03-01T11:05:26.218Z,96269.17
2019-03-01T11:07:58.010Z,96267.77
2019-03-01T11:10:32.744Z,96264.27
2019-03-01T11:13:05.130Z,96278.06
2019-03-01T11:15:36.995Z,96268.08
2019-03-01T11:18:08.796Z,96273.17
2019-03-01T11:20:40.598Z,96268.74
2019-03-01T11:23:12.308Z,96273.01
2019-03-01T11:25:44.179Z,96281.20
2019-03-01T11:28:15.883Z,96275.71
2019-03-01T11:30:47.681Z,96291.27
2019-03-01T11:33:20.433Z,96283.02
2019-03-01T11:35:52.297Z,96288.11
2019-03-01T11:38:24.098Z,96292.23
2019-03-01T11:40:55.989Z,96293.17
2019-03-01T11:43:28.674Z,96299.23
2019-03-01T11:46:00.763Z,96298.89
2019-03-01T11:48:32.571Z,96301.34
2019-03-01T11:51:04.299Z,96296.39
2019-03-01T11:53:36.073Z,96306.05
2019-03-01T11:56:07.865Z,96304.13
2019-03-01T11:58:39.579Z,96302.36
2019-03-01T12:01:17.076Z,96302.02
2019-03-01T12:03:44.706Z,96302.18
2019-03-01T12:06:16.750Z,96296.22
2019-03-01T12:08:48.508Z,96295.39
2019-03-01T12:11:20.297Z,96296.56
2019-03-01T12:13:52.002Z,96302.18
2019-03-01T12:16:23.827Z,96296.90
2019-03-01T12:18:55.551Z,96297.72
2019-03-01T12:21:27.273Z,96299.54
2019-03-01T12:23:58.981Z,96300.23
2019-03-01T12:26:30.777Z,96294.85
2019-03-01T12:29:02.756Z,96294.88
2019-03-01T12:31:34.726Z,96295.31
2019-03-01T12:34:06.827Z,96295.47
2019-03-01T12:36:38.876Z,96292.48
2019-03-01T12:39:11.289Z,96292.80
2019-03-01T12:41:43.329Z,96294.71
2019-03-01T12:44:15.041Z,96301.75
2019-03-01T12:46:47.084Z,96304.77
2019-03-01T12:49:18.793Z,96306.87
2019-03-01T12:51:50.597Z,96303.63
2019-03-01T12:54:22.307Z,96305.13
2019-03-01T12:56:54.086Z,96304.80
2019-03-01T12:59:25.801Z,96302.16
2019-03-01T13:01:57.515Z,96301.20
2019-03-01T13:04:29.224Z,96302.16
2019-03-01T13:07:00.934Z,96296.08
2019-03-01T13:09:32.639Z,96296.48
2019-03-01T13:12:04.355Z,96289.83
2019-03-01T13:14:36.757Z,96298.00
2019-03-01T13:17:09.496Z,96294.45
2019-03-01T13:19:41.204Z,96290.23
2019-03-01T13:22:13.179Z,96291.80
2019-03-01T13:24:44.888Z,96288.87
2019-03-01T13:27:17.307Z,96285.52
2019-03-01T13:29:49.940Z,96290.69
2019-03-01T13:32:23.126Z,96289.95
2019-03-01T13:34:55.385Z,96292.30
2019-03-01T13:37:27.183Z,96290.34
2019-03-01T13:39:58.889Z,96292.30
2019-03-01T13:42:30.599Z,96285.98
2019-03-01T13:45:02.306Z,96297.27
2019-03-01T13:47:34.088Z,96297.36
2019-03-01T13:50:07.262Z,96297.98
2019-03-01T13:52:39.196Z,96298.81
2019-03-01T13:55:11.409Z,96303.38
2019-03-01T13:57:46.114Z,96306.14
2019-03-01T14:00:18.400Z,96303.72
2019-03-01T14:02:50.759Z,96306.00
2019-03-01T14:05:22.611Z,96309.15
2019-03-01T14:07:56.761Z,96306.14
2019-03-01T14:10:27.812Z,96305.22
2019-03-01T14:12:59.831Z,96314.20
2019-03-01T14:15:31.536Z,96315.45
2019-03-01T14:18:03.273Z,96322.98
2019-03-01T14:20:34.972Z,96330.16
2019-03-01T14:23:06.842Z,96322.15
2019-03-01T14:25:41.643Z,96328.89
2019-03-01T14:28:12.294Z,96330.50
2019-03-01T14:30:44.067Z,96330.84
2019-03-01T14:33:15.864Z,96332.13
2019-03-01T14:35:47.571Z,96324.63
2019-03-01T14:38:19.542Z,96329.23
2019-03-01T14:40:51.494Z,96330.98
2019-03-01T14:43:23.876Z,96331.59
2019-03-01T14:45:56.619Z,96327.80
2019-03-01T14:48:28.366Z,96329.11
2019-03-01T14:51:00.151Z,96329.82
2019-03-01T14:53:34.836Z,96336.98
2019-03-01T14:56:21.500Z,96336.17
2019-03-01T14:59:00.080Z,96336.41
2019-03-01T15:01:46.530Z,96336.47
2019-03-01T15:04:18.243Z,96335.94
2019-03-01T15:06:51.389Z,96336.70
2019-03-01T15:09:23.467Z,96345.86
2019-03-01T15:11:55.313Z,96345.52
2019-03-01T15:14:27.181Z,96349.11
2019-03-01T15:17:00.011Z,96348.63
2019-03-01T15:19:31.805Z,96352.41
2019-03-01T15:22:04.625Z,96354.02
2019-03-01T15:24:37.098Z,96352.98
2019-03-01T15:27:08.911Z,96357.92
2019-03-01T15:29:40.708Z,96350.89
2019-03-01T15:32:12.593Z,96360.69
2019-03-01T15:34:45.281Z,96356.81
2019-03-01T15:37:18.335Z,96359.84
2019-03-01T15:39:51.249Z,96355.25
2019-03-01T15:42:23.555Z,96358.63
2019-03-01T15:44:55.279Z,96364.42
2019-03-01T15:47:27.955Z,96368.57
2019-03-01T15:49:59.676Z,96366.91
2019-03-01T15:52:31.381Z,96376.27
2019-03-01T15:55:03.104Z,96380.69
2019-03-01T15:57:35.470Z,96388.02
2019-03-01T16:00:07.555Z,96385.27
2019-03-01T16:02:40.977Z,96386.31
2019-03-01T16:05:12.938Z,96396.06
2019-03-01T16:07:44.758Z,96395.44
2019-03-01T16:10:16.698Z,96393.72
2019-03-01T16:12:48.557Z,96397.33
2019-03-01T16:15:21.251Z,96399.92
2019-03-01T16:17:53.251Z,96394.81
2019-03-01T16:20:28.491Z,96396.12
2019-03-01T16:22:58.908Z,96400.33
2019-03-01T16:25:30.642Z,96394.95
2019-03-01T16:28:02.681Z,96406.73
2019-03-01T16:30:35.762Z,96408.55
2019-03-01T16:33:07.613Z,96408.17
2019-03-01T16:35:39.399Z,96404.92
2019-03-01T16:38:11.566Z,96416.45
2019-03-01T16:40:43.391Z,96419.94
2019-03-01T16:43:15.105Z,96412.64
2019-03-01T16:45:47.004Z,96420.52
2019-03-01T16:48:19.086Z,96427.19
2019-03-01T16:50:50.833Z,96429.47
2019-03-01T16:53:22.576Z,96432.71
2019-03-01T16:55:54.489Z,96434.08
2019-03-01T16:58:28.186Z,96437.47
2019-03-01T17:00:59.676Z,96449.11
2019-03-01T17:03:31.654Z,96451.42
2019-03-01T17:06:03.526Z,96457.85
2019-03-01T17:08:36.386Z,96451.73
2019-03-01T17:11:08.955Z,96457.94
2019-03-01T17:13:40.870Z,96461.53
2019-03-01T17:16:12.984Z,96463.18
2019-03-01T17:18:47.845Z,96456.28
2019-03-01T17:21:18.584Z,96459.34
2019-03-01T17:23:50.647Z,96463.16
2019-03-01T17:26:22.508Z,96469.02
2019-03-01T17:28:54.240Z,96469.84
2019-03-01T17:31:26.945Z,96473.88
2019-03-01T17:33:59.660Z,96481.88
2019-03-01T17:36:31.491Z,96476.50
2019-03-01T17:39:04.318Z,96482.50
2019-03-01T17:41:37.627Z,96476.92
2019-03-01T17:44:09.630Z,96481.64
2019-03-01T17:46:41.380Z,96484.89
2019-03-01T17:49:13.169Z,96482.98
2019-03-01T17:51:44.914Z,96484.95
2019-03-01T17:54:19.032Z,96486.78
2019-03-01T17:56:50.541Z,96492.37
2019-03-01T17:59:23.331Z,96493.88
2019-03-01T18:01:55.169Z,96487.13
2019-03-01T18:04:27.073Z,96497.36
2019-03-01T18:06:59.761Z,96504.25
2019-03-01T18:09:31.975Z,96505.08
2019-03-01T18:12:03.708Z,96515.11
2019-03-01T18:14:36.911Z,96516.72
2019-03-01T18:17:09.051Z,96529.71
2019-03-01T18:19:40.838Z,96528.09
2019-03-01T18:22:13.571Z,96527.03
2019-03-01T18:24:46.744Z,96535.43
2019-03-01T18:27:18.835Z,96536.73
2019-03-01T18:29:50.609Z,96534.98
2019-03-01T18:32:22.410Z,96529.16
2019-03-01T18:34:55.216Z,96536.84
2019-03-01T18:37:27.062Z,96538.56
2019-03-01T18:39:59.532Z,96550.10
2019-03-01T18:42:34.324Z,96556.16
2019-03-01T18:45:07.053Z,96555.84
2019-03-01T18:47:38.815Z,96565.61
2019-03-01T18:50:15.909Z,96567.12
2019-03-01T18:52:49.611Z,96572.93
2019-03-01T18:55:21.799Z,96570.31
2019-03-01T18:57:53.743Z,96570.13
2019-03-01T19:00:32.511Z,96576.03
2019-03-01T19:03:05.977Z,96577.91
2019-03-01T19:05:40.134Z,96573.91
2019-03-01T19:08:12.207Z,96581.31
2019-03-01T19:10:53.719Z,96582.00
2019-03-01T19:13:20.894Z,96587.37
2019-03-01T19:15:54.381Z,96586.94
2019-03-01T19:18:25.122Z,96592.52
2019-03-01T19:20:56.985Z,96601.29
2019-03-01T19:23:29.426Z,96602.59
2019-03-01T19:26:02.829Z,96600.47
2019-03-01T19:28:34.674Z,96601.59
2019-03-01T19:31:06.714Z,96604.61
2019-03-01T19:33:41.467Z,96600.90
2019-03-01T19:36:12.802Z,96594.75
2019-03-01T19:38:46.501Z,96602.98
2019-03-01T19:41:20.071Z,96596.76
2019-03-01T19:43:57.449Z,96597.98
2019-03-01T19:46:26.550Z,96605.83
2019-03-01T19:48:58.721Z,96605.83
2019-03-01T19:51:33.778Z,96613.64
2019-03-01T19:54:04.092Z,96610.94
2019-03-01T19:56:36.790Z,96610.27
2019-03-01T19:59:08.659Z,96616.60
2019-03-01T20:01:40.797Z,96619.66
2019-03-01T20:04:12.929Z,96628.77
2019-03-01T20:06:44.957Z,96636.27
2019-03-01T20:09:16.789Z,96632.87
2019-03-01T20:11:48.578Z,96642.81
2019-03-01T20:14:20.439Z,96637.59
2019-03-01T20:16:54.908Z,96638.36
2019-03-01T20:19:26.087Z,96638.20
2019-03-01T20:21:57.872Z,96645.20
2019-03-01T20:24:29.639Z,96643.52
2019-03-01T20:27:03.066Z,96646.48
2019-03-01T20:29:34.880Z,96650.44
2019-03-01T20:32:06.663Z,96653.38
2019-03-01T20:34:38.936Z,96656.55
2019-03-01T20:37:11.787Z,96659.65
2019-03-01T20:39:43.560Z,96659.86
2019-03-01T20:42:17.678Z,96664.53
2019-03-01T20:44:50.276Z,96668.68
2019-03-01T20:47:23.092Z,96665.25
2019-03-01T20:49:55.827Z,96672.66
2019-03-01T20:52:27.715Z,96671.64
2019-03-01T20:55:00.574Z,96671.07
2019-03-01T20:57:32.722Z,96667.92
2019-03-01T21:00:05.690Z,96670.39
2019-03-01T21:02:39.245Z,96669.66
2019-03-01T21:05:12.518Z,96676.82
2019-03-01T21:07:44.482Z,96671.04
2019-03-01T21:10:19.291Z,96683.13
2019-03-01T21:12:51.244Z,96683.28
2019-03-01T21:15:23.224Z,96687.88
2019-03-01T21:17:57.125Z,96693.94
2019-03-01T21:20:28.674Z,96690.78
2019-03-01T21:23:00.715Z,96691.27
2019-03-01T21:25:35.943Z,96689.90
2019-03-01T21:28:06.206Z,96692.08
2019-03-01T21:30:37.991Z,96697.58
2019-03-01T21:33:11.872Z,96687.95
2019-03-01T21:35:43.498Z,96695.74
2019-03-01T21:38:15.275Z,96690.64
2019-03-01T21:40:47.096Z,96693.48
2019-03-01T21:43:19.329Z,96691.20
2019-03-01T21:45:51.251Z,96685.89
2019-03-01T21:48:25.317Z,96696.43
2019-03-01T21:50:56.666Z,96700.41
2019-03-01T21:53:28.781Z,96695.81
2019-03-01T21:56:04.235Z,96705.44
2019-03-01T21:58:34.737Z,96702.61
2019-03-01T22:01:07.594Z,96699.10
2019-03-01T22:03:40.853Z,96699.20
2019-03-01T22:06:12.688Z,96702.73
2019-03-01T22:08:48.572Z,96698.91
2019-03-01T22:11:20.775Z,96699.93
2019-03-01T22:13:52.151Z,96700.76
2019-03-01T22:16:24.479Z,96708.61
2019-03-01T22:18:58.651Z,96713.11
2019-03-01T22:21:30.126Z,96719.29
2019-03-01T22:24:01.976Z,96722.80
2019-03-01T22:26:33.755Z,96727.55
2019-03-01T22:29:08.797Z,96730.70
2019-03-01T22:31:39.752Z,96723.34
2019-03-01T22:34:12.037Z,96725.34
2019-03-01T22:36:44.203Z,96724.04
2019-03-01T22:39:16.590Z,96726.69
2019-03-01T22:41:49.312Z,96724.13
2019-03-01T22:44:21.089Z,96728.98
2019-03-01T22:46:53.436Z,96730.06
2019-03-01T22:49:25.252Z,96723.11
2019-03-01T22:51:57.146Z,96729.45
2019-03-01T22:54:29.276Z,96728.15
2019-03-01T22:57:01.083Z,96726.45
2019-03-01T22:59:33.394Z,96733.16
2019-03-01T23:02:09.274Z,96726.14
2019-03-01T23:04:42.604Z,96725.53
2019-03-01T23:07:14.537Z,96730.06
2019-03-01T23:09:47.533Z,96728.15
2019-03-01T23:12:21.033Z,96729.76
2019-03-01T23:14:52.834Z,96726.39
2019-03-01T23:17:27.563Z,96731.24
2019-03-01T23:19:58.123Z,96727.67
2019-03-01T23:22:30.222Z,96734.64
2019-03-01T23:25:02.929Z,96731.91
2019-03-01T23:27:34.942Z,96728.94
2019-03-01T23:30:06.919Z,96725.30
2019-03-01T23:32:38.922Z,96723.72
2019-03-01T23:35:14.641Z,96721.99
2019-03-01T23:37:45.057Z,96718.77
2019-03-01T23:40:17.381Z,96731.84
2019-03-01T23:42:49.123Z,96718.30
2019-03-01T23:45:20.865Z,96718.42
2019-03-01T23:47:52.603Z,96720.27
2019-03-01T23:50:24.440Z,96717.65
2019-03-01T23:52:58.813Z,96728.10
2019-03-01T23:55:29.902Z,96723.13
2019-03-01T23:58:05.942Z,96725.92
